Terminal Aerodrome Forecast
Issued by NWS

Home | Current Version | Previous Version | Text Only | Print | Product List | Glossary On
Versions: 1 2 3 4 5 6 7 8 9 10 11 12 13 14 15 16 17 18 19 20 21 22 23 24 25 26 27 28 29 30
000
FTUS42 KCAE 230305 CCA
TAFCUB
TAF COR
KCUB 230305Z 2303/2324 15006KT P6SM VCSH SCT025 BKN060
      WS015/19040KT
      TEMPO 2303/2307 5SM -SHRA BR BKN015
     FM230700 20010G17KT P6SM BKN015 OVC035 WS015/19040KT
      TEMPO 2307/2311 BKN008
     FM231300 24011G17KT P6SM SCT015 BKN025
     FM231600 27014G24KT P6SM FEW015 SCT250=

USA.gov is the U.S. government's official web portal to all federal, state and local government web resources and services.